Time;durP1;ratioP1;P1;durP2;ratioP2;P2;SDS_P1;SDS_P2;PMS_P1;PMS_P2;Temp;Humidity;BMP_temperature;BMP_pressure;BME280_temperature;BME280_humidity;BME280_pressure;Samples;Min_cycle;Max_cycle;Signal;HPM_P1;HPM_P2
2022/10/06 00:00:50;;;;;;;11.23;2.38;;;13.50;84.90;;;;;;5112899;28;20101;-74
2022/10/06 00:03:16;;;;;;;8.05;1.80;;;13.50;84.80;;;;;;5095860;28;20582;-75
2022/10/06 00:05:42;;;;;;;9.43;2.25;;;13.50;84.90;;;;;;5111927;28;20075;-75
2022/10/06 00:08:07;;;;;;;8.40;2.00;;;13.50;84.40;;;;;;5112687;28;20043;-75
2022/10/06 00:10:34;;;;;;;8.00;2.15;;;13.50;84.10;;;;;;5112653;28;20051;-75
2022/10/06 00:13:00;;;;;;;8.77;2.03;;;13.50;84.00;;;;;;5112684;28;20039;-75
2022/10/06 00:15:29;;;;;;;9.75;1.48;;;13.50;83.60;;;;;;5112723;28;20506;-75
2022/10/06 00:17:56;;;;;;;12.18;2.75;;;13.50;83.70;;;;;;5112740;28;20396;-75
2022/10/06 00:20:22;;;;;;;13.68;2.50;;;13.50;83.50;;;;;;5112561;28;20043;-75
2022/10/06 00:22:51;;;;;;;10.45;2.47;;;13.50;83.40;;;;;;5095551;28;20043;-75
2022/10/06 00:25:19;;;;;;;9.48;2.45;;;13.50;83.10;;;;;;5112488;28;20044;-75
2022/10/06 00:27:48;;;;;;;7.80;2.13;;;13.50;83.30;;;;;;5112397;28;20542;-75
2022/10/06 00:30:21;;;;;;;8.38;2.17;;;13.50;82.60;;;;;;5112262;28;20101;-75
2022/10/06 00:32:59;;;;;;;10.50;2.60;;;13.50;82.30;;;;;;5112384;28;20571;-75
2022/10/06 00:35:27;;;;;;;6.45;1.35;;;13.50;81.70;;;;;;5112371;28;20507;-74
2022/10/06 00:37:54;;;;;;;9.63;2.55;;;13.50;82.00;;;;;;5112219;28;20040;-76
2022/10/06 00:40:20;;;;;;;8.73;2.22;;;13.50;82.00;;;;;;5112304;28;20118;-75
2022/10/06 00:43:04;;;;;;;13.20;2.28;;;13.50;82.00;;;;;;5095042;28;20063;-74
2022/10/06 00:45:42;;;;;;;5.30;2.00;;;13.50;81.60;;;;;;5112663;28;20035;-75
2022/10/06 00:48:17;;;;;;;10.93;2.10;;;13.50;81.40;;;;;;5112301;28;20277;-74
2022/10/06 00:50:44;;;;;;;10.07;2.72;;;13.50;81.30;;;;;;5095210;28;20043;-76
2022/10/06 00:53:10;;;;;;;7.65;1.75;;;13.50;81.50;;;;;;5112401;28;20391;-75
2022/10/06 00:55:36;;;;;;;8.38;1.80;;;13.50;81.60;;;;;;5113592;28;20118;-74
2022/10/06 00:58:03;;;;;;;9.95;2.40;;;13.40;81.90;;;;;;5095263;28;20123;-74
2022/10/06 01:00:29;;;;;;;10.40;2.35;;;13.40;82.00;;;;;;5112376;28;20379;-74
2022/10/06 01:03:01;;;;;;;8.27;1.85;;;13.30;82.00;;;;;;5112359;28;20118;-74
2022/10/06 01:05:35;;;;;;;14.13;2.50;;;13.30;81.80;;;;;;5112097;28;20104;-75
2022/10/06 01:08:00;;;;;;;8.70;2.00;;;13.30;81.40;;;;;;5095214;28;20075;-75
2022/10/06 01:10:26;;;;;;;11.27;2.30;;;13.30;81.20;;;;;;5111890;28;20522;-75
2022/10/06 01:12:52;;;;;;;12.20;2.30;;;13.20;81.50;;;;;;5112197;28;20097;-75
2022/10/06 01:15:20;;;;;;;15.25;3.10;;;13.20;81.20;;;;;;5112146;28;20492;-75
2022/10/06 01:17:54;;;;;;;13.15;2.70;;;13.10;81.40;;;;;;5114669;28;20111;-75
2022/10/06 01:20:21;;;;;;;11.23;2.00;;;13.10;81.60;;;;;;5116106;28;20130;-75
2022/10/06 01:22:50;;;;;;;15.77;2.78;;;13.00;81.50;;;;;;5115996;28;20526;-74
2022/10/06 01:25:17;;;;;;;9.43;1.90;;;13.00;81.50;;;;;;5116214;28;20483;-76
2022/10/06 01:27:50;;;;;;;8.90;2.22;;;13.00;81.50;;;;;;5115809;28;20122;-75
2022/10/06 01:30:20;;;;;;;13.27;2.22;;;13.00;81.50;;;;;;5116111;28;20048;-76
2022/10/06 01:32:46;;;;;;;11.00;1.75;;;13.00;81.00;;;;;;5116105;28;20040;-75
2022/10/06 01:35:12;;;;;;;7.75;1.80;;;13.10;81.20;;;;;;5115914;28;20562;-75
2022/10/06 01:37:38;;;;;;;14.30;2.20;;;13.00;81.30;;;;;;5115666;28;20105;-75
2022/10/06 01:40:04;;;;;;;11.75;2.22;;;13.00;81.40;;;;;;5099010;28;20108;-75
2022/10/06 01:42:31;;;;;;;13.20;2.35;;;13.00;81.40;;;;;;5115336;28;20059;-75
2022/10/06 01:44:58;;;;;;;10.32;2.55;;;12.90;81.80;;;;;;5115805;28;20047;-75
2022/10/06 01:47:24;;;;;;;10.98;2.20;;;12.80;82.10;;;;;;5115396;28;20544;-75
2022/10/06 01:49:49;;;;;;;12.10;2.25;;;12.80;82.20;;;;;;5115674;28;20047;-75
2022/10/06 01:52:15;;;;;;;10.75;2.25;;;12.70;82.50;;;;;;5115417;28;20415;-75
2022/10/06 01:54:41;;;;;;;11.27;2.08;;;12.60;82.90;;;;;;5115533;28;20066;-75
2022/10/06 01:57:09;;;;;;;9.90;2.40;;;12.60;83.10;;;;;;5115555;28;20043;-75
2022/10/06 01:59:35;;;;;;;10.35;2.30;;;12.70;83.00;;;;;;5098616;28;20035;-75
2022/10/06 02:02:01;;;;;;;6.55;2.50;;;12.70;83.20;;;;;;5115198;28;20042;-75
2022/10/06 02:04:27;;;;;;;13.98;2.80;;;12.60;83.10;;;;;;5115478;28;20044;-75
2022/10/06 02:06:54;;;;;;;10.93;2.40;;;12.60;83.50;;;;;;5098122;28;20127;-75
2022/10/06 02:09:20;;;;;;;12.27;2.70;;;12.70;83.20;;;;;;5115311;28;20043;-75
2022/10/06 02:11:46;;;;;;;10.68;1.95;;;12.60;83.10;;;;;;5115106;28;20082;-75
2022/10/06 02:14:12;;;;;;;7.32;2.08;;;12.60;82.90;;;;;;5115053;28;20067;-75
2022/10/06 02:16:38;;;;;;;9.98;2.20;;;12.70;82.60;;;;;;5115135;28;20036;-74
2022/10/06 02:19:05;;;;;;;7.13;1.40;;;12.70;82.60;;;;;;5114967;28;20031;-75
2022/10/06 02:21:31;;;;;;;17.40;3.85;;;12.80;82.50;;;;;;5115116;28;20442;-75
2022/10/06 02:23:56;;;;;;;11.95;2.72;;;13.00;82.60;;;;;;5114864;28;20039;-74
2022/10/06 02:26:22;;;;;;;4.65;1.70;;;13.00;82.60;;;;;;5114997;28;20057;-75
2022/10/06 02:28:48;;;;;;;10.07;3.17;;;13.00;82.40;;;;;;5113597;28;20372;-75
2022/10/06 02:31:15;;;;;;;7.88;2.67;;;13.00;82.30;;;;;;5097745;28;20036;-75
2022/10/06 02:33:42;;;;;;;9.13;2.25;;;13.00;82.20;;;;;;5114900;28;20036;-74
2022/10/06 02:36:14;;;;;;;10.05;2.20;;;13.00;82.50;;;;;;5081003;28;20119;-75
2022/10/06 02:38:40;;;;;;;8.18;1.95;;;12.80;82.80;;;;;;5114871;28;20032;-75
2022/10/06 02:41:07;;;;;;;10.52;1.77;;;12.90;82.80;;;;;;5114783;28;20368;-74
2022/10/06 02:43:34;;;;;;;5.78;1.40;;;12.80;82.70;;;;;;5114274;28;20055;-75
2022/10/06 02:46:10;;;;;;;10.15;1.63;;;12.90;82.40;;;;;;5114298;28;20040;-74
2022/10/06 02:48:36;;;;;;;8.75;2.10;;;12.90;82.20;;;;;;5114685;28;20537;-75
2022/10/06 02:51:17;;;;;;;7.95;2.17;;;13.00;81.50;;;;;;5114236;28;20123;-75
2022/10/06 02:53:44;;;;;;;11.40;2.60;;;13.00;81.40;;;;;;5114309;28;20540;-74
2022/10/06 02:56:14;;;;;;;8.90;1.70;;;13.10;81.00;;;;;;5114366;28;20058;-74
2022/10/06 02:58:44;;;;;;;8.00;1.55;;;13.00;81.10;;;;;;5114267;28;20491;-75
2022/10/06 03:01:13;;;;;;;13.88;2.83;;;13.00;81.40;;;;;;5114469;28;20043;-75
2022/10/06 03:03:39;;;;;;;11.70;2.65;;;13.00;81.50;;;;;;5114472;28;20422;-74
2022/10/06 03:06:22;;;;;;;9.93;2.42;;;12.90;81.90;;;;;;5113973;28;20069;-75
2022/10/06 03:08:48;;;;;;;10.68;2.55;;;12.90;82.00;;;;;;5096955;28;20096;-75
2022/10/06 03:11:14;;;;;;;8.55;2.58;;;12.90;82.10;;;;;;5113845;28;20039;-74
2022/10/06 03:13:40;;;;;;;11.35;2.60;;;12.90;82.10;;;;;;5113862;28;20047;-75
2022/10/06 03:16:21;;;;;;;11.80;2.30;;;12.80;81.60;;;;;;5113773;28;20092;-75
2022/10/06 03:18:48;;;;;;;7.05;1.85;;;12.90;81.90;;;;;;5113812;28;20031;-75
2022/10/06 03:21:15;;;;;;;14.63;3.40;;;12.80;82.00;;;;;;5113653;28;20107;-74
2022/10/06 03:23:46;;;;;;;11.02;2.10;;;12.70;81.80;;;;;;5096734;28;20040;-75
2022/10/06 03:26:14;;;;;;;11.27;2.22;;;12.70;81.80;;;;;;5113642;28;20077;-75
2022/10/06 03:28:40;;;;;;;10.85;3.05;;;12.60;81.80;;;;;;5096784;28;20557;-75
2022/10/06 03:31:06;;;;;;;13.38;2.45;;;12.50;82.00;;;;;;5096729;28;20341;-74
2022/10/06 03:33:33;;;;;;;6.40;1.73;;;12.50;81.80;;;;;;5096503;28;20039;-75
2022/10/06 03:36:16;;;;;;;10.82;1.88;;;12.50;82.10;;;;;;5113281;28;20217;-75
2022/10/06 03:38:42;;;;;;;10.43;2.13;;;12.50;82.20;;;;;;5113425;28;20074;-75
2022/10/06 03:41:12;;;;;;;11.25;1.92;;;12.40;82.20;;;;;;5113328;28;20079;-75
2022/10/06 03:43:40;;;;;;;9.80;2.13;;;12.40;82.40;;;;;;5113137;28;20062;-75
2022/10/06 03:46:08;;;;;;;7.57;1.58;;;12.40;82.50;;;;;;5113101;28;20479;-75
2022/10/06 03:48:34;;;;;;;11.63;2.22;;;12.40;82.60;;;;;;5113171;28;20043;-75
2022/10/06 03:51:10;;;;;;;10.60;2.45;;;12.50;82.50;;;;;;5113185;28;20035;-74
2022/10/06 03:53:36;;;;;;;11.02;2.28;;;12.40;82.50;;;;;;5113087;28;20036;-74
2022/10/06 03:56:13;;;;;;;8.45;2.20;;;12.40;82.40;;;;;;5096395;28;20391;-74
2022/10/06 03:58:42;;;;;;;10.93;2.13;;;12.40;82.70;;;;;;5112978;28;20452;-75
2022/10/06 04:01:16;;;;;;;8.23;2.45;;;12.30;82.70;;;;;;5112906;28;20052;-75
2022/10/06 04:03:43;;;;;;;11.80;2.95;;;12.30;82.70;;;;;;5112936;28;20050;-76
2022/10/06 04:06:12;;;;;;;14.50;2.88;;;12.30;82.80;;;;;;5112782;28;20507;-75
2022/10/06 04:08:39;;;;;;;10.90;2.53;;;12.20;82.70;;;;;;5112983;28;20051;-74
2022/10/06 04:11:26;;;;;;;13.27;2.30;;;12.30;82.80;;;;;;5112776;28;20101;-75
2022/10/06 04:14:03;;;;;;;14.98;2.35;;;12.20;83.00;;;;;;5096498;28;20092;-75
2022/10/06 04:16:37;;;;;;;12.40;2.42;;;12.20;83.20;;;;;;5112429;28;20043;-75
2022/10/06 04:19:06;;;;;;;13.00;2.40;;;12.20;83.60;;;;;;5113001;28;20498;-75
2022/10/06 04:21:36;;;;;;;9.38;2.58;;;12.30;83.70;;;;;;5112571;28;20035;-75
2022/10/06 04:24:02;;;;;;;13.70;2.63;;;12.30;83.80;;;;;;5095937;28;20066;-74
2022/10/06 04:26:32;;;;;;;14.77;3.33;;;12.30;83.80;;;;;;5112423;28;20040;-75
2022/10/06 04:29:01;;;;;;;15.57;2.50;;;12.40;83.90;;;;;;5112774;28;20180;-75
2022/10/06 04:31:30;;;;;;;8.43;2.85;;;12.40;83.80;;;;;;5112073;28;20518;-74
2022/10/06 04:33:58;;;;;;;11.60;2.78;;;12.50;83.60;;;;;;5112399;28;20044;-74
2022/10/06 04:36:26;;;;;;;16.58;2.85;;;12.50;83.60;;;;;;5095597;28;20050;-75
2022/10/06 04:38:57;;;;;;;10.00;3.30;;;12.50;83.60;;;;;;5112309;28;20127;-75
2022/10/06 04:41:27;;;;;;;13.48;2.65;;;12.50;83.80;;;;;;5112335;28;20123;-74
2022/10/06 04:43:53;;;;;;;13.68;2.53;;;12.40;83.80;;;;;;5095188;28;20055;-74
2022/10/06 04:46:21;;;;;;;11.90;3.38;;;12.30;83.80;;;;;;5112187;28;20122;-75
2022/10/06 04:48:50;;;;;;;17.48;3.13;;;12.30;83.70;;;;;;5112141;28;20047;-74
2022/10/06 04:51:17;;;;;;;17.75;2.42;;;12.30;83.50;;;;;;5094538;28;20488;-74
2022/10/06 04:53:43;;;;;;;15.02;2.53;;;12.30;83.50;;;;;;5112148;28;20480;-75
2022/10/06 04:56:14;;;;;;;8.20;2.17;;;12.30;83.60;;;;;;5112087;28;20039;-74
2022/10/06 04:58:44;;;;;;;10.82;2.92;;;12.30;83.10;;;;;;5112320;28;20119;-75
2022/10/06 05:01:21;;;;;;;12.63;2.08;;;12.20;83.30;;;;;;5112073;28;20036;-74
2022/10/06 05:03:48;;;;;;;14.48;2.60;;;12.20;83.30;;;;;;5112121;28;20048;-75
2022/10/06 05:06:34;;;;;;;14.85;3.25;;;12.10;83.50;;;;;;5112025;28;20055;-74
2022/10/06 05:09:05;;;;;;;9.82;2.42;;;12.20;83.60;;;;;;5112098;28;20075;-76
2022/10/06 05:11:32;;;;;;;11.35;2.40;;;12.10;83.60;;;;;;5111914;28;20047;-74
2022/10/06 05:13:58;;;;;;;14.27;3.65;;;12.10;83.90;;;;;;5095002;28;20051;-74
2022/10/06 05:16:26;;;;;;;10.20;2.50;;;12.20;83.90;;;;;;5112187;28;20071;-74
2022/10/06 05:18:52;;;;;;;14.05;2.42;;;12.10;84.20;;;;;;5111947;28;20035;-74
2022/10/06 05:21:24;;;;;;;17.58;2.33;;;12.20;84.30;;;;;;5095412;28;20148;-75
2022/10/06 05:23:49;;;;;;;13.05;2.80;;;12.20;84.40;;;;;;5112027;28;20541;-74
2022/10/06 05:26:19;;;;;;;12.88;2.40;;;12.30;84.40;;;;;;5111754;28;20040;-74
2022/10/06 05:28:45;;;;;;;9.50;2.30;;;12.30;84.50;;;;;;5112178;28;20044;-74
2022/10/06 05:31:18;;;;;;;13.27;2.38;;;12.30;84.50;;;;;;5094828;28;20506;-74
2022/10/06 05:33:44;;;;;;;13.40;2.83;;;12.40;84.60;;;;;;5111801;28;20051;-76
2022/10/06 05:36:30;;;;;;;24.52;3.70;;;12.40;84.70;;;;;;5111814;28;20042;-76
2022/10/06 05:38:57;;;;;;;16.35;2.90;;;12.40;84.90;;;;;;5111612;28;20054;-75
2022/10/06 05:41:28;;;;;;;14.13;2.70;;;12.30;84.80;;;;;;5111585;28;20049;-75
2022/10/06 05:43:54;;;;;;;13.98;2.67;;;12.40;84.80;;;;;;5109667;28;20070;-77
2022/10/06 05:46:23;;;;;;;9.50;3.17;;;12.40;84.90;;;;;;5093734;28;20122;-76
2022/10/06 05:48:55;;;;;;;10.73;2.35;;;12.30;84.90;;;;;;5110957;28;20047;-75
2022/10/06 05:51:23;;;;;;;12.45;2.78;;;12.40;84.80;;;;;;5111463;28;20438;-75
2022/10/06 05:53:49;;;;;;;11.20;2.20;;;12.40;84.70;;;;;;5111882;28;20361;-75
2022/10/06 05:56:23;;;;;;;15.95;2.45;;;12.40;84.90;;;;;;5094549;28;20062;-75
2022/10/06 05:58:54;;;;;;;12.90;2.88;;;12.50;84.70;;;;;;5111847;28;20058;-75
2022/10/06 06:01:21;;;;;;;12.80;2.20;;;12.40;84.90;;;;;;5111586;28;20040;-76
2022/10/06 06:03:54;;;;;;;18.73;3.42;;;12.30;84.80;;;;;;5114030;28;20055;-75
2022/10/06 06:06:30;;;;;;;16.70;2.85;;;12.30;85.00;;;;;;5115483;28;20083;-76
2022/10/06 06:09:00;;;;;;;12.23;2.95;;;12.20;85.10;;;;;;5115184;28;20036;-75
2022/10/06 06:11:27;;;;;;;12.30;2.38;;;12.20;85.50;;;;;;5115461;28;20384;-74
2022/10/06 06:13:58;;;;;;;16.95;3.25;;;12.40;85.00;;;;;;5115039;28;20039;-75
2022/10/06 06:16:25;;;;;;;17.77;3.33;;;12.30;85.40;;;;;;5114854;28;20114;-76
2022/10/06 06:18:51;;;;;;;12.80;2.97;;;12.20;85.40;;;;;;5115220;28;20031;-76
2022/10/06 06:21:17;;;;;;;14.18;2.92;;;12.30;85.40;;;;;;5097901;28;20467;-76
2022/10/06 06:23:45;;;;;;;12.32;2.80;;;12.30;85.40;;;;;;5114992;28;20035;-76
2022/10/06 06:26:25;;;;;;;13.50;2.60;;;12.30;85.30;;;;;;5115039;28;20083;-75
2022/10/06 06:28:51;;;;;;;12.48;2.70;;;12.30;85.40;;;;;;5113135;28;20042;-75
2022/10/06 06:31:25;;;;;;;9.23;2.25;;;12.30;85.30;;;;;;5109518;27;20453;-75
2022/10/06 06:33:53;;;;;;;17.10;2.47;;;12.30;85.20;;;;;;5089537;28;20035;-74
2022/10/06 06:36:23;;;;;;;14.90;2.83;;;12.30;85.10;;;;;;5107490;28;20579;-75
2022/10/06 06:38:51;;;;;;;16.17;2.92;;;12.30;85.20;;;;;;5106148;28;20048;-76
2022/10/06 06:41:20;;;;;;;11.32;2.78;;;12.30;85.10;;;;;;5105003;28;20101;-75
2022/10/06 06:43:47;;;;;;;15.10;2.30;;;12.30;85.30;;;;;;5107832;28;20059;-75
2022/10/06 06:46:14;;;;;;;12.13;2.72;;;12.20;85.50;;;;;;5090083;28;20112;-75
2022/10/06 06:48:40;;;;;;;10.88;2.40;;;12.30;85.20;;;;;;5105704;28;20096;-74
2022/10/06 06:51:09;;;;;;;17.70;3.17;;;12.30;85.40;;;;;;5089255;28;20053;-75
2022/10/06 06:53:35;;;;;;;13.85;3.50;;;12.30;85.30;;;;;;5107030;28;20051;-74
2022/10/06 06:56:01;;;;;;;8.57;2.40;;;12.30;85.50;;;;;;5106358;28;20053;-75
2022/10/06 06:58:27;;;;;;;16.27;2.75;;;12.30;85.40;;;;;;5105628;28;20039;-75
2022/10/06 07:00:52;;;;;;;13.32;2.83;;;12.30;85.50;;;;;;5105895;27;20091;-75
2022/10/06 07:03:20;;;;;;;15.75;3.20;;;12.30;85.60;;;;;;5107213;28;21070;-75
2022/10/06 07:05:46;;;;;;;10.80;2.85;;;12.40;85.50;;;;;;5107085;28;20051;-73
2022/10/06 07:08:19;;;;;;;12.85;2.97;;;12.40;85.60;;;;;;5105992;28;20476;-75
2022/10/06 07:10:47;;;;;;;14.35;3.28;;;12.60;85.30;;;;;;5106481;28;20052;-75
2022/10/06 07:13:15;;;;;;;12.10;4.32;;;12.60;85.10;;;;;;5107654;28;20097;-74
2022/10/06 07:26:43;;;;;;;13.93;2.55;;;13.00;83.90;;;;;;5106367;28;20196;-75
2022/10/06 07:29:09;;;;;;;13.85;3.10;;;13.00;84.00;;;;;;5104248;28;20526;-75
2022/10/06 07:31:35;;;;;;;11.77;2.78;;;13.00;83.80;;;;;;5105592;27;20142;-75
2022/10/06 07:34:06;;;;;;;12.35;2.63;;;13.00;83.90;;;;;;5089145;28;20118;-75
2022/10/06 07:36:32;;;;;;;14.68;2.72;;;13.20;83.50;;;;;;5106039;28;20036;-74
2022/10/06 07:38:58;;;;;;;11.52;2.80;;;13.20;83.40;;;;;;5104160;28;20040;-75
2022/10/06 07:41:24;;;;;;;12.50;2.50;;;13.30;83.10;;;;;;5107218;27;20046;-76
2022/10/06 07:43:52;;;;;;;10.45;2.13;;;13.40;82.40;;;;;;5089036;28;20487;-77
2022/10/06 07:46:18;;;;;;;9.23;2.15;;;13.50;82.10;;;;;;5089096;28;20063;-76
2022/10/06 07:48:47;;;;;;;11.63;2.22;;;13.50;82.00;;;;;;5087645;28;20454;-76
2022/10/06 07:51:15;;;;;;;12.48;2.63;;;13.50;82.00;;;;;;5105054;27;20047;-75
2022/10/06 07:53:41;;;;;;;13.80;2.95;;;13.60;81.70;;;;;;5088547;28;20049;-75
2022/10/06 07:56:07;;;;;;;10.57;2.28;;;13.70;81.90;;;;;;5105540;28;20051;-75
2022/10/06 07:58:34;;;;;;;9.63;2.60;;;13.70;81.30;;;;;;5086674;28;20039;-75
2022/10/06 08:01:05;;;;;;;9.48;2.10;;;13.80;81.30;;;;;;5104573;28;20042;-74
2022/10/06 08:03:31;;;;;;;11.65;2.75;;;13.90;80.50;;;;;;5103601;28;20039;-76
2022/10/06 08:05:59;;;;;;;11.27;2.67;;;14.00;80.30;;;;;;5105619;28;20050;-74
2022/10/06 08:08:26;;;;;;;13.02;2.75;;;14.00;80.00;;;;;;5087376;28;20044;-75
2022/10/06 08:10:56;;;;;;;9.95;3.50;;;14.00;80.10;;;;;;5104558;28;20081;-74
2022/10/06 08:13:23;;;;;;;10.93;1.98;;;14.10;79.60;;;;;;5105641;28;20047;-74
2022/10/06 08:15:50;;;;;;;11.80;2.00;;;14.20;79.50;;;;;;5104482;28;20039;-75
2022/10/06 08:18:19;;;;;;;10.20;2.03;;;14.10;79.40;;;;;;5104350;28;20055;-75
2022/10/06 08:20:44;;;;;;;13.90;1.85;;;14.30;78.50;;;;;;5105954;27;20468;-77
2022/10/06 08:23:11;;;;;;;8.27;2.08;;;14.40;78.60;;;;;;5104530;28;20090;-77
2022/10/06 08:25:42;;;;;;;6.18;1.40;;;14.40;77.50;;;;;;5103643;28;20048;-75
2022/10/06 08:28:11;;;;;;;7.75;1.48;;;14.50;77.40;;;;;;5103195;28;20054;-74
2022/10/06 08:30:38;;;;;;;10.75;2.38;;;14.40;77.20;;;;;;5104195;28;20060;-77
2022/10/06 08:33:04;;;;;;;9.90;2.17;;;14.50;76.60;;;;;;5104899;28;20085;-76
2022/10/06 08:35:31;;;;;;;13.20;2.30;;;14.50;76.90;;;;;;5105173;28;20043;-74
2022/10/06 08:37:58;;;;;;;7.90;2.00;;;14.60;76.70;;;;;;5102838;28;20530;-75
2022/10/06 08:40:25;;;;;;;8.25;1.60;;;14.60;76.70;;;;;;5103323;28;20503;-74
2022/10/06 08:42:54;;;;;;;12.60;2.28;;;14.60;76.30;;;;;;5087837;28;20055;-76
2022/10/06 08:45:28;;;;;;;11.65;2.50;;;14.70;76.20;;;;;;5087725;28;20088;-77
2022/10/06 08:48:01;;;;;;;11.48;2.38;;;14.70;76.20;;;;;;5087672;28;20075;-78
2022/10/06 08:50:31;;;;;;;3.63;1.23;;;14.90;75.60;;;;;;5086482;28;20491;-75
2022/10/06 08:53:13;;;;;;;7.53;1.80;;;15.00;75.20;;;;;;5088186;28;20043;-76
2022/10/06 08:55:48;;;;;;;13.93;2.65;;;15.00;75.80;;;;;;5104179;28;20043;-75
2022/10/06 08:58:27;;;;;;;10.50;1.63;;;15.00;75.40;;;;;;5103624;28;20049;-76
2022/10/06 09:00:55;;;;;;;6.97;2.10;;;15.10;74.90;;;;;;5105020;28;20131;-77
2022/10/06 09:03:26;;;;;;;12.20;2.45;;;15.10;73.80;;;;;;5105287;28;20047;-76
2022/10/06 09:05:55;;;;;;;9.43;2.50;;;15.10;73.40;;;;;;5105049;28;20086;-76
2022/10/06 09:08:53;;;;;;;11.65;1.95;;;15.20;73.80;;;;;;5103800;28;20397;-78
2022/10/06 09:11:48;;;;;;;15.75;3.58;;;15.20;72.90;;;;;;5105162;28;20059;-77
2022/10/06 09:14:20;;;;;;;11.90;3.30;;;15.30;72.60;;;;;;5087970;28;20044;-75
2022/10/06 09:16:53;;;;;;;10.85;2.28;;;15.20;72.90;;;;;;5104575;28;20062;-77
2022/10/06 09:19:25;;;;;;;7.63;2.13;;;15.10;73.40;;;;;;5103448;28;20093;-76
2022/10/06 09:21:53;;;;;;;7.47;2.05;;;15.20;72.70;;;;;;5104809;28;20075;-76
2022/10/06 09:24:44;;;;;;;7.85;1.27;;;15.30;72.50;;;;;;5104547;28;20061;-77
2022/10/06 09:27:35;;;;;;;9.70;2.17;;;15.40;71.80;;;;;;5086749;28;20104;-77
2022/10/06 09:30:03;;;;;;;5.32;2.35;;;15.40;71.70;;;;;;5101341;28;20040;-76
2022/10/06 09:32:30;;;;;;;12.02;3.72;;;15.50;72.10;;;;;;5086523;28;20040;-76
2022/10/06 09:35:01;;;;;;;10.75;3.38;;;15.50;72.50;;;;;;5105457;28;20365;-76
2022/10/06 09:37:27;;;;;;;15.57;3.42;;;15.50;72.40;;;;;;5087825;28;20040;-77
2022/10/06 09:39:53;;;;;;;12.90;2.63;;;15.50;72.00;;;;;;5091468;28;20031;-77
2022/10/06 09:42:34;;;;;;;11.27;2.20;;;15.50;71.40;;;;;;5091164;28;20055;-77
2022/10/06 09:45:15;;;;;;;8.02;2.00;;;15.50;71.80;;;;;;5106595;28;20039;-77
2022/10/06 09:47:45;;;;;;;12.75;2.55;;;15.70;71.90;;;;;;5107202;28;20055;-76
2022/10/06 09:50:23;;;;;;;10.88;2.45;;;15.70;70.80;;;;;;5106242;27;20590;-77
2022/10/06 09:53:04;;;;;;;8.85;1.73;;;15.90;71.70;;;;;;5090261;28;20118;-77
2022/10/06 09:55:36;;;;;;;10.70;2.28;;;16.00;71.20;;;;;;5089435;28;20044;-78
2022/10/06 09:58:14;;;;;;;10.13;2.10;;;16.00;70.80;;;;;;5105466;28;20036;-78
2022/10/06 10:00:52;;;;;;;8.20;2.25;;;16.10;70.30;;;;;;5107505;27;20515;-76
2022/10/06 10:03:18;;;;;;;12.63;2.83;;;16.10;69.80;;;;;;5107756;28;20047;-76
2022/10/06 10:05:50;;;;;;;8.30;1.77;;;16.00;68.70;;;;;;5108206;28;20059;-76
2022/10/06 10:08:22;;;;;;;8.75;2.00;;;16.10;69.00;;;;;;5107695;28;20046;-77
2022/10/06 10:14:00;;;;;;;6.32;1.40;;;16.30;68.50;;;;;;5105512;28;20046;-75
2022/10/06 10:16:34;;;;;;;9.15;2.03;;;16.40;67.00;;;;;;5106368;28;20040;-76
2022/10/06 10:19:03;;;;;;;9.73;2.13;;;16.40;67.00;;;;;;5103554;28;20039;-77
2022/10/06 10:21:35;;;;;;;8.18;1.88;;;16.40;66.60;;;;;;5108050;27;20382;-76
2022/10/06 10:24:05;;;;;;;8.60;2.17;;;16.40;67.50;;;;;;5106374;28;20445;-76
2022/10/06 10:27:13;;;;;;;9.18;1.80;;;16.50;66.80;;;;;;5105068;28;20046;-78
2022/10/06 10:29:49;;;;;;;6.85;1.30;;;16.50;63.80;;;;;;5103643;28;20051;-77
2022/10/06 10:32:23;;;;;;;7.00;1.00;;;16.50;63.80;;;;;;5089597;28;20043;-77
2022/10/06 10:35:04;;;;;;;10.43;2.15;;;16.60;63.10;;;;;;5106204;28;20512;-76
2022/10/06 10:37:35;;;;;;;8.70;2.22;;;16.70;62.60;;;;;;5104611;28;20407;-77
2022/10/06 10:40:24;;;;;;;5.78;1.40;;;16.70;63.60;;;;;;5105918;27;20040;-77
2022/10/06 10:42:56;;;;;;;8.18;1.75;;;16.80;64.20;;;;;;5106352;28;20063;-77
2022/10/06 10:45:33;;;;;;;7.25;1.40;;;16.80;62.90;;;;;;5105956;28;20150;-78
2022/10/06 10:48:03;;;;;;;10.75;1.98;;;16.90;63.30;;;;;;5104519;28;20116;-77
2022/10/06 10:50:48;;;;;;;8.68;1.77;;;16.90;63.00;;;;;;5103924;28;20046;-77
2022/10/06 10:53:17;;;;;;;;;;;17.00;62.40;;;;;;5089532;28;20131;-78
2022/10/06 10:55:46;;;;;;;10.02;2.00;;;16.90;62.00;;;;;;5089041;28;19927;-79
2022/10/06 10:58:27;;;;;;;10.90;1.63;;;17.00;62.60;;;;;;5104801;28;20051;-77
2022/10/06 11:00:58;;;;;;;8.15;1.70;;;16.90;60.90;;;;;;5105501;28;20054;-77
2022/10/06 11:03:24;;;;;;;6.88;2.05;;;16.90;62.10;;;;;;5089026;28;20763;-77
2022/10/06 11:05:56;;;;;;;7.53;1.63;;;17.00;61.90;;;;;;5105945;28;20642;-78
2022/10/06 11:08:37;;;;;;;7.70;1.58;;;17.10;62.20;;;;;;5104429;28;20054;-78
2022/10/06 11:11:12;;;;;;;8.15;1.90;;;17.20;61.90;;;;;;5105637;28;20040;-78
2022/10/06 11:13:42;;;;;;;6.05;1.60;;;17.20;62.50;;;;;;5105036;28;20036;-77
2022/10/06 11:16:28;;;;;;;8.00;1.70;;;17.30;62.30;;;;;;5088060;28;20507;-78
2022/10/06 11:19:20;;;;;;;9.15;1.63;;;17.30;61.90;;;;;;5087404;28;20065;-77
2022/10/06 11:21:53;;;;;;;8.07;1.85;;;17.50;62.40;;;;;;5105603;28;20048;-77
2022/10/06 11:24:44;;;;;;;9.48;2.05;;;17.40;62.00;;;;;;5105855;28;20051;-77
2022/10/06 11:27:42;;;;;;;8.10;1.65;;;17.40;62.50;;;;;;5105456;28;20063;-77
2022/10/06 11:30:25;;;;;;;6.93;1.30;;;17.50;61.00;;;;;;5103448;28;20104;-77
2022/10/06 11:33:19;;;;;;;5.38;1.25;;;17.60;61.80;;;;;;5093072;28;20043;-76
2022/10/06 11:35:47;;;;;;;7.13;1.88;;;17.70;62.10;;;;;;5110063;28;20075;-78
2022/10/06 11:38:15;;;;;;;5.45;1.27;;;17.70;61.00;;;;;;5109669;28;20066;-78
2022/10/06 11:40:50;;;;;;;6.47;1.90;;;17.80;60.90;;;;;;5106458;28;20388;-78
2022/10/06 11:43:33;;;;;;;9.02;2.90;;;18.00;62.00;;;;;;5104365;28;20532;-79
2022/10/06 11:46:16;;;;;;;4.85;1.30;;;18.00;59.30;;;;;;5105389;28;20043;-78
2022/10/06 11:48:42;;;;;;;4.15;1.10;;;18.00;58.30;;;;;;5104653;28;20039;-77
2022/10/06 11:51:23;;;;;;;6.35;1.33;;;18.00;58.20;;;;;;5087792;28;20491;-78
2022/10/06 11:53:50;;;;;;;9.18;1.95;;;17.90;57.30;;;;;;5105812;28;20039;-78
2022/10/06 11:56:15;;;;;;;5.78;1.42;;;18.00;59.00;;;;;;5088102;28;20043;-77
2022/10/06 11:58:50;;;;;;;5.82;1.35;;;18.00;59.60;;;;;;5103132;28;20117;-78
2022/10/06 12:01:37;;;;;;;9.63;1.75;;;18.10;59.00;;;;;;5104203;28;20043;-77
2022/10/06 12:04:06;;;;;;;5.60;1.63;;;18.20;58.80;;;;;;5103646;28;20131;-78
2022/10/06 12:06:46;;;;;;;7.45;1.52;;;18.10;58.90;;;;;;5104788;28;20035;-77
2022/10/06 12:09:24;;;;;;;6.18;1.60;;;18.00;58.70;;;;;;5086119;28;20043;-79
2022/10/06 12:12:20;;;;;;;6.63;1.98;;;18.00;58.20;;;;;;5104728;28;20047;-78
2022/10/06 12:14:49;;;;;;;7.78;1.42;;;18.00;59.20;;;;;;5087493;28;20051;-78
2022/10/06 12:17:44;;;;;;;5.28;1.83;;;18.00;59.60;;;;;;5087498;28;20059;-78
2022/10/06 12:20:37;;;;;;;6.70;2.35;;;18.20;58.80;;;;;;5102285;28;20047;-78
2022/10/06 12:23:09;;;;;;;6.07;1.85;;;18.40;59.30;;;;;;5102173;28;20093;-78
2022/10/06 12:25:59;;;;;;;7.75;1.17;;;18.40;58.30;;;;;;5103234;28;20044;-78
2022/10/06 12:28:43;;;;;;;8.85;2.03;;;18.40;56.90;;;;;;5103318;28;20070;-78
2022/10/06 12:31:36;;;;;;;7.55;1.58;;;18.50;57.50;;;;;;5102747;28;20140;-78
2022/10/06 12:34:02;;;;;;;5.15;1.20;;;18.30;58.00;;;;;;5100475;28;20067;-77
2022/10/06 12:36:31;;;;;;;5.65;1.88;;;18.50;58.70;;;;;;5104307;28;20051;-77
2022/10/06 12:39:03;;;;;;;6.30;1.88;;;18.30;57.40;;;;;;5103207;28;20050;-78
2022/10/06 12:42:01;;;;;;;4.88;1.33;;;18.20;56.60;;;;;;5103689;28;20092;-77
2022/10/06 12:44:30;;;;;;;4.85;1.58;;;18.00;57.20;;;;;;5105797;28;20097;-77
2022/10/06 12:47:01;;;;;;;8.40;1.70;;;18.30;56.70;;;;;;5109781;28;20548;-79
2022/10/06 12:49:41;;;;;;;7.60;1.50;;;18.40;56.90;;;;;;5108009;28;20040;-78
2022/10/06 12:52:33;;;;;;;5.35;1.63;;;18.40;56.40;;;;;;5109289;28;20071;-78
2022/10/06 12:55:20;;;;;;;9.73;1.60;;;18.30;56.00;;;;;;5109449;28;20051;-78
2022/10/06 12:57:53;;;;;;;6.50;1.10;;;18.30;56.80;;;;;;5109516;28;20036;-78
2022/10/06 13:00:38;;;;;;;4.00;1.27;;;18.10;55.10;;;;;;5107541;28;20147;-78
2022/10/06 13:03:07;;;;;;;6.88;2.00;;;18.00;54.90;;;;;;5109312;28;20093;-77
2022/10/06 13:05:35;;;;;;;6.85;1.60;;;17.90;54.90;;;;;;5092499;28;20372;-77
2022/10/06 13:08:18;;;;;;;7.00;1.83;;;17.90;54.50;;;;;;5109305;28;20128;-77
2022/10/06 13:10:43;;;;;;;6.93;1.92;;;18.00;55.10;;;;;;5091822;28;20055;-79
2022/10/06 13:13:23;;;;;;;8.90;1.85;;;17.90;55.40;;;;;;5111132;28;20039;-78
2022/10/06 13:15:54;;;;;;;5.93;1.13;;;18.00;55.40;;;;;;5097007;28;20043;-78